East Cotter, Arkansas
Current Conditions -  °F | °C
As of 1:53 AM on Tuesday 21 Oct 2014 (Local Time) from KBPK Reporting Station
Haze Haze  
Wind Chill: 58°   Ceiling: Unl
Heat Index: 58°   Visibility: 5mi
Dew Point: 57°   Wind: 3mph
Humidity: 97%   Direction: NA
Pressure: 30.07"   Gusts: NA
Location:  36.3299°N, 92.4805°W
Report Text: KBPK 210653Z AUTO VRB03KT 5SM BR CLR 14/14 A3007 RMK AO2 SLP176 T01440139
Loading
Personal Weather Stations






























Interactive Weather Map
Tropical Storm Tracking
New forecast layout! Learn more

10-Day Weather Forecast

Advertisements
Track Severe Weather on mobile